• Join FlightAware (Why Join?)
  • Login
  • US Flag 
05:09PM EDT


 

Airport Tracker/Info


-or-


 

Live Flight TrackerFlight Track Log ✈ UCA3596 ✈ 09-Jan-2014 ✈ KBGM - KIAD

Flight Track Log - Related Links

Times and Time Zones

All times are in EST time to prevent confusion due to time zone crossing. See the UCA3596 flight status page for this flight to view local times or setup timezone preferences in your user account.

Time Position Orientation Groundspeed Altitude Reporting Facility
EST Latitude Longitude Course Direction KTS MPH feet Rate Location/Type
04:40PM 42.2078 -76.0536 207° Southwest 161 185 4,400  Level New York Center
04:41PM 42.1669 -76.0811 207° Southwest 166 191 5,900 1,500 Climbing New York Center
04:42PM 42.1300 -76.1117 212° Southwest 166 191 7,400 1,500 Climbing New York Center
04:43PM 42.0911 -76.1478 215° Southwest 171 197 8,900 1,440 Climbing New York Center
04:44PM 42.0481 -76.1778 207° Southwest 176 203 10,400 1,560 Climbing New York Center
04:45PM 41.9992 -76.2017 200° South 181 208 12,100 1,500 Climbing New York Center
04:46PM 41.9542 -76.2286 204° Southwest 181 208 13,500 1,380 Climbing New York Center
04:47PM 41.9069 -76.2553 203° Southwest 181 208 14,900 1,200 Climbing New York Center
04:48PM 41.8622 -76.2794 202° Southwest 187 215 15,900 540 Climbing New York Center
04:49PM 41.8044 -76.3136 204° Southwest 208 239 16,000  Climbing New York Center
04:50PM 41.7317 -76.3550 203° Southwest 249 287 16,000  Level New York Center
04:51PM 41.6675 -76.3911 203° Southwest 260 299 16,000  Level New York Center
04:52PM 41.6011 -76.4300 204° Southwest 260 299 16,000  Level New York Center
04:53PM 41.5456 -76.4614 203° Southwest 260 299 16,000  Level New York Center
04:54PM 41.4747 -76.4997 202° Southwest 260 299 16,000  Level New York Center
04:55PM 41.4125 -76.5386 205° Southwest 260 299 16,000  Level New York Center
04:56PM 41.3483 -76.5719 201° Southwest 260 299 16,000  Level New York Center
04:57PM 41.2928 -76.6031 203° Southwest 260 299 16,000  Level New York Center
04:58PM 41.2286 -76.6361 201° Southwest 260 299 16,000  Level New York Center
04:59PM 41.1642 -76.6744 204° Southwest 260 299 16,000  Level New York Center
05:00PM 41.1019 -76.7131 205° Southwest 260 299 16,000  Level New York Center
05:01PM 41.0397 -76.7464 202° Southwest 260 299 16,000  Level New York Center
05:02PM 40.9756 -76.7819 203° Southwest 260 299 16,000  Level New York Center
05:03PM 40.9067 -76.8225 204° Southwest 260 299 16,000  Level New York Center
05:04PM 40.8489 -76.8503 200° South 255 293 16,000  Level New York Center
05:05PM 40.7783 -76.8878 202° Southwest 255 293 16,000  Level New York Center
05:06PM 40.7147 -76.9069 193° South 260 299 16,000  Level New York Center
05:07PM 40.6428 -76.9306 194° South 260 299 16,000  Level New York Center
05:08PM 40.5728 -76.9517 193° South 255 293 16,000  Level New York Center
05:09PM 40.5050 -76.9728 193° South 255 293 16,000  Level New York Center
05:10PM 40.4350 -76.9939 193° South 260 299 16,000 -180 Level New York Center
05:11PM 40.3653 -77.0147 193° South 260 299 15,700 -600 Descending New York Center
05:12PM 40.2931 -77.0408 195° South 271 312 14,800 -840 Descending New York Center
05:13PM 40.1833 -77.0667 190° South 273 314 13,600 -780 Descending Potomac TRACON
05:14PM 40.1167 -77.1000 201° Southwest 272 313 12,800 -840 Descending Potomac TRACON
05:15PM 40.0333 -77.1167 189° South 268 308 12,000 -900 Descending Potomac TRACON
05:16PM 39.9667 -77.1333 191° South 272 313 11,200 -780 Descending Potomac TRACON
05:17PM 39.9000 -77.1667 201° Southwest 262 302 10,400 -840 Descending Potomac TRACON
05:18PM 39.8333 -77.1833 191° South 254 292 9,600 -900 Descending Potomac TRACON
05:19PM 39.7667 -77.2000 191° South 253 291 8,800 -840 Descending Potomac TRACON
05:20PM 39.7000 -77.2333 201° Southwest 242 278 8,000 -840 Descending Potomac TRACON
05:21PM 39.6333 -77.2667 201° Southwest 231 266 7,200 -540 Descending Potomac TRACON
05:22PM 39.5667 -77.2833 191° South 224 258 7,000 -120 Descending Potomac TRACON
05:23PM 39.5167 -77.3167 207° Southwest 221 254 7,000 -480 Level Potomac TRACON
05:24PM 39.4500 -77.3500 201° Southwest 237 273 6,100 -960 Descending Potomac TRACON
05:25PM 39.4000 -77.3667 194° South 217 250 5,200 -600 Descending Potomac TRACON
05:26PM 39.3500 -77.4000 207° Southwest 214 246 5,000 -120 Descending Potomac TRACON
05:27PM 39.2833 -77.4167 191° South 213 245 5,000  Level Potomac TRACON
05:28PM 39.2333 -77.4500 207° Southwest 217 250 5,000 -240 Level Potomac TRACON
05:29PM 39.1667 -77.4500 180° South 229 264 4,600 -900 Descending Potomac TRACON
05:30PM 39.1167 -77.4500 180° South 191 220 3,200 -1,200 Descending Potomac TRACON
05:31PM 39.0667 -77.4500 180° South 168 193 2,300 -900 Descending Potomac TRACON
05:32PM 39.0333 -77.4667 201° Southwest 118 136 1,500 -720 Descending Potomac TRACON
05:33PM 39.0000 -77.4667 180° South 108 124 900 -720 Descending Potomac TRACON
05:35PM 38.9474 -77.4599 180° South  Level Estimated
05:42PM 38.9474 -77.4599 349° North  Level Estimated